Terminal Aerodrome Forecast
Issued by NWS

Home | Current Version | Previous Version | Text Only | Print | Product List | Glossary On
Versions: 1 2 3 4 5 6 7 8 9 10 11 12
721
FTAK31 PAJN 091132
TAFAWG
TAF
PAWG 091132Z 0912/1012 08006KT P6SM SKC WS020/05025KT
     FM092200 07008G17KT P6SM SKC
     FM100100 08007KT P6SM SKC
      AMD LTD TO CLD VIS AND WIND 0912/0915=

USA.gov is the U.S. government's official web portal to all federal, state and local government web resources and services.